createdAt,value
2022-08-02T00:00:22.583Z,65.51
2022-08-02T00:02:49.595Z,65.44
2022-08-02T00:05:16.447Z,65.33
2022-08-02T00:07:43.139Z,65.39
2022-08-02T00:10:11.986Z,65.88
2022-08-02T00:12:39.777Z,65.75
2022-08-02T00:15:09.365Z,65.29
2022-08-02T00:17:36.130Z,65.29
2022-08-02T00:20:03.879Z,65.28
2022-08-02T00:22:30.533Z,65.38
2022-08-02T00:24:57.172Z,65.53
2022-08-02T00:27:23.915Z,65.50
2022-08-02T00:29:53.333Z,65.92
2022-08-02T00:32:21.741Z,65.77
2022-08-02T00:34:48.460Z,67.65
2022-08-02T00:37:15.476Z,68.12
2022-08-02T00:39:43.077Z,69.78
2022-08-02T00:42:10.389Z,70.83
2022-08-02T00:44:37.777Z,71.87
2022-08-02T00:47:04.638Z,72.54
2022-08-02T00:49:32.852Z,72.88
2022-08-02T00:52:00.261Z,72.10
2022-08-02T00:54:27.240Z,71.17
2022-08-02T00:56:53.873Z,71.87
2022-08-02T00:59:20.560Z,72.16
2022-08-02T01:01:56.387Z,72.65
2022-08-02T01:04:30.230Z,72.65
2022-08-02T01:07:13.636Z,73.92
2022-08-02T01:09:42.329Z,73.67
2022-08-02T01:12:09.886Z,73.58
2022-08-02T01:14:37.401Z,73.43
2022-08-02T01:17:12.302Z,73.15
2022-08-02T01:20:12.797Z,73.12
2022-08-02T01:23:04.366Z,73.03
2022-08-02T01:26:18.260Z,73.28
2022-08-02T01:29:09.232Z,74.37
2022-08-02T01:31:42.852Z,74.95
2022-08-02T01:34:21.280Z,75.62
2022-08-02T01:36:55.177Z,76.24
2022-08-02T01:39:31.847Z,75.51
2022-08-02T01:42:01.274Z,75.51
2022-08-02T01:44:30.863Z,75.50
2022-08-02T01:47:03.992Z,75.96
2022-08-02T01:49:32.994Z,75.67
2022-08-02T01:52:38.282Z,75.02
2022-08-02T01:55:18.611Z,75.20
2022-08-02T01:57:58.493Z,75.29
2022-08-02T02:00:29.013Z,75.65
2022-08-02T02:02:57.810Z,76.05
2022-08-02T02:05:27.277Z,75.62
2022-08-02T02:07:56.931Z,75.82
2022-08-02T02:10:32.330Z,76.72
2022-08-02T02:13:18.751Z,76.50
2022-08-02T02:15:48.713Z,76.49
2022-08-02T02:18:20.558Z,76.12
2022-08-02T02:20:48.187Z,77.01
2022-08-02T02:23:15.040Z,77.14
2022-08-02T02:25:46.787Z,76.97
2022-08-02T02:28:22.256Z,77.86
2022-08-02T02:30:53.399Z,79.97
2022-08-02T02:33:27.664Z,80.67
2022-08-02T02:35:59.405Z,82.14
2022-08-02T02:38:30.616Z,82.72
2022-08-02T02:41:00.798Z,83.52
2022-08-02T02:43:32.921Z,84.94
2022-08-02T02:46:01.865Z,88.19
2022-08-02T02:48:30.039Z,88.38
2022-08-02T02:50:59.070Z,88.46
2022-08-02T02:53:26.234Z,88.33
2022-08-02T02:56:02.062Z,88.13
2022-08-02T02:58:30.034Z,86.81
2022-08-02T03:01:16.098Z,84.99
2022-08-02T03:03:45.059Z,82.99
2022-08-02T03:06:15.042Z,81.94
2022-08-02T03:08:42.603Z,81.49
2022-08-02T03:11:10.431Z,80.83
2022-08-02T03:13:38.385Z,80.93
2022-08-02T03:16:06.235Z,80.95
2022-08-02T03:18:38.534Z,80.24
2022-08-02T03:21:07.870Z,87.69
2022-08-02T03:23:35.201Z,92.47
2022-08-02T03:26:02.254Z,90.03
2022-08-02T03:28:29.112Z,85.19
2022-08-02T03:30:55.719Z,83.44
2022-08-02T03:33:24.115Z,91.38
2022-08-02T03:35:53.034Z,91.97
2022-08-02T03:38:22.676Z,92.65
2022-08-02T03:40:57.857Z,91.78
2022-08-02T03:43:25.208Z,91.25
2022-08-02T03:45:57.141Z,88.82
2022-08-02T03:48:34.544Z,87.51
2022-08-02T03:51:02.679Z,85.84
2022-08-02T03:53:30.307Z,83.56
2022-08-02T03:55:57.604Z,83.39
2022-08-02T03:58:25.304Z,82.17
2022-08-02T04:00:54.195Z,81.01
2022-08-02T04:03:21.462Z,80.63
2022-08-02T04:06:03.563Z,78.98
2022-08-02T04:08:35.914Z,78.75
2022-08-02T04:11:23.613Z,78.91
2022-08-02T04:13:50.462Z,78.89
2022-08-02T04:16:31.574Z,77.76
2022-08-02T04:19:02.009Z,77.86
2022-08-02T04:21:51.366Z,76.16
2022-08-02T04:24:25.280Z,76.07
2022-08-02T04:27:06.347Z,75.13
2022-08-02T04:29:47.077Z,73.46
2022-08-02T04:32:14.789Z,73.45
2022-08-02T04:34:47.384Z,73.29
2022-08-02T04:37:21.451Z,73.20
2022-08-02T04:39:48.199Z,72.22
2022-08-02T04:42:25.909Z,70.91
2022-08-02T04:44:54.239Z,70.62
2022-08-02T04:47:54.318Z,70.62
2022-08-02T04:50:09.142Z,70.56
2022-08-02T04:52:35.834Z,70.08
2022-08-02T04:55:02.564Z,69.50
2022-08-02T04:57:51.222Z,68.42
2022-08-02T05:00:20.033Z,67.81
2022-08-02T05:02:47.112Z,67.68
2022-08-02T05:05:13.954Z,66.88
2022-08-02T05:07:40.611Z,66.18
2022-08-02T05:10:07.728Z,71.60
2022-08-02T05:12:34.431Z,72.72
2022-08-02T05:15:01.086Z,73.57
2022-08-02T05:17:27.751Z,72.37
2022-08-02T05:19:54.366Z,73.79
2022-08-02T05:22:21.047Z,74.11
2022-08-02T05:24:47.714Z,74.18
2022-08-02T05:27:17.007Z,72.54
2022-08-02T05:29:51.119Z,71.50
2022-08-02T05:32:24.979Z,69.91
2022-08-02T05:34:52.080Z,69.88
2022-08-02T05:37:19.292Z,69.04
2022-08-02T05:39:55.939Z,67.82
2022-08-02T05:42:23.340Z,68.39
2022-08-02T05:44:50.139Z,69.40
2022-08-02T05:47:17.167Z,68.47
2022-08-02T05:49:43.889Z,68.13
2022-08-02T05:52:18.800Z,66.69
2022-08-02T05:54:51.610Z,66.78
2022-08-02T05:57:50.463Z,65.03
2022-08-02T06:00:17.530Z,65.50
2022-08-02T06:03:03.148Z,63.79
2022-08-02T06:05:35.415Z,62.54
2022-08-02T06:08:04.059Z,61.71
2022-08-02T06:10:36.463Z,60.49
2022-08-02T06:13:10.096Z,60.64
2022-08-02T06:15:52.770Z,59.52
2022-08-02T06:18:27.765Z,59.48
2022-08-02T06:22:33.174Z,59.72
2022-08-02T06:23:57.828Z,58.12
2022-08-02T06:26:27.331Z,56.45
2022-08-02T06:28:56.121Z,55.71
2022-08-02T06:31:23.068Z,54.99
2022-08-02T06:33:49.846Z,54.94
2022-08-02T06:36:32.644Z,51.76
2022-08-02T06:39:13.859Z,50.36
2022-08-02T06:41:44.849Z,48.90
2022-08-02T06:44:45.584Z,47.45
2022-08-02T06:47:12.125Z,46.92
2022-08-02T06:49:52.156Z,46.31
2022-08-02T06:52:30.333Z,46.20
2022-08-02T06:54:59.247Z,45.40
2022-08-02T06:57:26.372Z,46.73
2022-08-02T06:59:53.129Z,46.04
2022-08-02T07:02:19.938Z,46.05
2022-08-02T07:04:46.660Z,46.92
2022-08-02T07:07:13.548Z,46.07
2022-08-02T07:09:56.697Z,45.78
2022-08-02T07:12:27.942Z,44.56
2022-08-02T07:14:54.636Z,44.80
2022-08-02T07:17:21.304Z,44.41
2022-08-02T07:19:48.141Z,45.26
2022-08-02T07:22:15.045Z,43.88
2022-08-02T07:24:42.139Z,43.44
2022-08-02T07:27:11.546Z,43.11
2022-08-02T07:29:46.691Z,42.86
2022-08-02T07:32:15.319Z,41.89
2022-08-02T07:34:42.438Z,42.11
2022-08-02T07:37:19.489Z,42.27
2022-08-02T07:39:56.803Z,41.52
2022-08-02T07:42:23.851Z,42.07
2022-08-02T07:44:51.201Z,42.76
2022-08-02T07:47:18.145Z,42.58
2022-08-02T07:49:45.092Z,42.74
2022-08-02T07:52:12.172Z,41.70
2022-08-02T07:54:39.096Z,42.53
2022-08-02T07:57:05.764Z,41.05
2022-08-02T07:59:32.391Z,41.82
2022-08-02T08:01:59.371Z,40.20
2022-08-02T08:04:26.792Z,42.72
2022-08-02T08:06:54.154Z,43.27
2022-08-02T08:09:21.115Z,42.37
2022-08-02T08:11:47.971Z,41.84
2022-08-02T08:14:16.859Z,40.77
2022-08-02T08:16:44.092Z,40.86
2022-08-02T08:19:10.782Z,40.39
2022-08-02T08:21:37.440Z,40.20
2022-08-02T08:24:04.831Z,39.07
2022-08-02T08:26:31.696Z,38.19
2022-08-02T08:28:58.357Z,38.60
2022-08-02T08:31:24.968Z,37.49
2022-08-02T08:33:52.713Z,38.01
2022-08-02T08:36:21.388Z,36.92
2022-08-02T08:38:48.920Z,35.60
2022-08-02T08:41:19.882Z,35.05
2022-08-02T08:43:51.481Z,37.14
2022-08-02T08:46:29.216Z,38.27
2022-08-02T08:49:23.230Z,37.90
2022-08-02T08:51:54.652Z,37.93
2022-08-02T08:54:25.916Z,39.01
2022-08-02T08:56:54.632Z,39.26
2022-08-02T08:59:21.907Z,38.72
2022-08-02T09:01:51.394Z,38.56
2022-08-02T09:04:19.647Z,38.94
2022-08-02T09:06:46.292Z,38.54
2022-08-02T09:09:12.892Z,39.32
2022-08-02T09:11:39.593Z,39.89
2022-08-02T09:14:06.393Z,40.06
2022-08-02T09:16:38.440Z,40.31
2022-08-02T09:19:26.218Z,40.61
2022-08-02T09:22:05.232Z,39.82
2022-08-02T09:24:51.423Z,39.58
2022-08-02T09:27:20.451Z,38.16
2022-08-02T09:32:46.610Z,39.33
2022-08-02T09:35:14.090Z,40.53
2022-08-02T09:37:41.946Z,40.02
2022-08-02T09:40:10.818Z,39.42
2022-08-02T09:42:37.588Z,39.54
2022-08-02T09:45:04.639Z,39.62
2022-08-02T09:47:31.424Z,38.52
2022-08-02T09:49:58.749Z,38.77
2022-08-02T09:52:37.169Z,40.22
2022-08-02T09:55:11.953Z,39.41
2022-08-02T09:57:38.880Z,40.87
2022-08-02T10:00:14.867Z,40.05
2022-08-02T10:03:14.313Z,39.07
2022-08-02T10:05:55.927Z,38.22
2022-08-02T10:08:28.501Z,38.32
2022-08-02T10:11:01.714Z,37.78
2022-08-02T10:13:29.716Z,37.28
2022-08-02T10:15:57.346Z,37.30
2022-08-02T10:18:38.128Z,37.33
2022-08-02T10:21:10.329Z,38.11
2022-08-02T10:23:40.268Z,38.05
2022-08-02T10:26:08.360Z,36.27
2022-08-02T10:28:36.342Z,36.87
2022-08-02T10:31:06.180Z,37.51
2022-08-02T10:33:36.300Z,38.07
2022-08-02T10:36:07.641Z,37.62
2022-08-02T10:38:36.214Z,37.83
2022-08-02T10:41:03.228Z,39.01
2022-08-02T10:43:32.787Z,36.81
2022-08-02T10:46:24.525Z,37.73
2022-08-02T10:52:00.581Z,36.99
2022-08-02T10:54:43.994Z,36.82
2022-08-02T10:57:19.374Z,36.65
2022-08-02T10:59:46.714Z,35.73
2022-08-02T11:02:14.268Z,37.16
2022-08-02T11:04:41.139Z,35.75
2022-08-02T11:07:17.102Z,36.55
2022-08-02T11:09:51.262Z,35.91
2022-08-02T11:12:20.327Z,35.25
2022-08-02T11:14:59.799Z,35.02
2022-08-02T11:17:29.052Z,35.53
2022-08-02T11:20:11.143Z,33.69
2022-08-02T11:22:41.338Z,35.87
2022-08-02T11:25:23.467Z,35.07
2022-08-02T11:28:08.663Z,35.00
2022-08-02T11:30:36.412Z,34.16
2022-08-02T11:33:04.206Z,34.19
2022-08-02T11:35:36.281Z,33.82
2022-08-02T11:38:20.890Z,34.46
2022-08-02T11:40:48.926Z,34.49
2022-08-02T11:43:23.518Z,35.54
2022-08-02T11:45:52.581Z,34.91
2022-08-02T11:48:33.850Z,35.27
2022-08-02T11:51:09.693Z,34.93
2022-08-02T11:53:50.035Z,34.60
2022-08-02T11:56:25.598Z,33.35
2022-08-02T11:59:12.946Z,33.15
2022-08-02T12:01:45.032Z,33.48
2022-08-02T12:04:17.408Z,32.96
2022-08-02T12:06:45.105Z,33.83
2022-08-02T12:09:18.763Z,33.20
2022-08-02T12:11:49.225Z,32.12
2022-08-02T12:14:15.964Z,31.89
2022-08-02T12:17:01.388Z,32.36
2022-08-02T12:19:28.586Z,34.40
2022-08-02T12:22:10.879Z,31.67
2022-08-02T12:24:38.703Z,31.82
2022-08-02T12:27:05.809Z,31.92
2022-08-02T12:29:57.815Z,32.03
2022-08-02T12:32:25.333Z,33.17
2022-08-02T12:35:06.885Z,32.17
2022-08-02T12:37:34.393Z,32.01
2022-08-02T12:40:18.361Z,34.96
2022-08-02T12:42:56.596Z,34.36
2022-08-02T12:45:24.093Z,33.69
2022-08-02T12:47:54.127Z,33.71
2022-08-02T12:50:26.561Z,32.98
2022-08-02T12:53:03.450Z,30.58
2022-08-02T12:56:01.277Z,29.97
2022-08-02T12:58:18.580Z,30.26
2022-08-02T13:00:54.552Z,30.68
2022-08-02T13:04:10.123Z,31.26
2022-08-02T13:06:32.246Z,32.35
2022-08-02T13:08:55.470Z,32.20
2022-08-02T13:11:23.079Z,33.12
2022-08-02T13:13:49.833Z,33.11
2022-08-02T13:16:17.158Z,33.02
2022-08-02T13:18:45.651Z,33.79
2022-08-02T13:21:23.551Z,35.32
2022-08-02T13:23:59.554Z,34.60
2022-08-02T13:26:31.042Z,34.07
2022-08-02T13:28:58.172Z,34.63
2022-08-02T13:31:36.112Z,35.56
2022-08-02T13:34:08.282Z,35.72
2022-08-02T13:36:36.563Z,34.99
2022-08-02T13:39:04.761Z,33.34
2022-08-02T13:41:32.477Z,32.54
2022-08-02T13:44:08.915Z,31.29
2022-08-02T13:46:37.804Z,31.21
2022-08-02T13:49:18.551Z,31.67
2022-08-02T13:51:47.125Z,33.75
2022-08-02T13:54:14.486Z,33.86
2022-08-02T13:56:41.184Z,34.66
2022-08-02T13:59:54.377Z,36.58
2022-08-02T14:01:56.592Z,36.83
2022-08-02T14:04:23.931Z,36.84
2022-08-02T14:06:50.976Z,36.38
2022-08-02T14:09:18.075Z,37.59
2022-08-02T14:11:46.098Z,37.62
2022-08-02T14:14:16.295Z,38.38
2022-08-02T14:16:44.569Z,37.21
2022-08-02T14:19:15.899Z,37.13
2022-08-02T14:21:47.923Z,36.74
2022-08-02T14:24:19.886Z,37.13
2022-08-02T14:26:47.677Z,37.85
2022-08-02T14:29:15.871Z,38.54
2022-08-02T14:31:44.818Z,37.50
2022-08-02T14:34:13.012Z,37.03
2022-08-02T14:36:39.958Z,36.08
2022-08-02T14:39:06.766Z,36.54
2022-08-02T14:41:59.570Z,35.49
2022-08-02T14:44:23.969Z,36.43
2022-08-02T14:46:52.037Z,38.27
2022-08-02T14:49:25.318Z,37.95
2022-08-02T14:51:54.271Z,38.38
2022-08-02T14:54:28.277Z,38.58
2022-08-02T14:57:02.814Z,39.18
2022-08-02T14:59:30.068Z,38.84
2022-08-02T15:01:57.268Z,39.56
2022-08-02T15:04:24.111Z,40.19
2022-08-02T15:06:50.891Z,39.89
2022-08-02T15:09:17.570Z,39.28
2022-08-02T15:11:47.939Z,39.88
2022-08-02T15:14:25.663Z,40.40
2022-08-02T15:16:57.077Z,40.06
2022-08-02T15:19:25.863Z,37.81
2022-08-02T15:22:03.285Z,39.12
2022-08-02T15:24:30.041Z,39.74
2022-08-02T15:26:57.097Z,40.76
2022-08-02T15:29:23.772Z,40.67
2022-08-02T15:31:50.488Z,41.15
2022-08-02T15:34:18.690Z,41.49
2022-08-02T15:36:45.597Z,41.36
2022-08-02T15:39:12.546Z,40.99
2022-08-02T15:41:39.234Z,41.96
2022-08-02T15:44:08.607Z,41.97
2022-08-02T15:46:37.211Z,42.18
2022-08-02T15:49:03.941Z,41.54
2022-08-02T15:51:30.633Z,41.66
2022-08-02T15:53:57.317Z,41.54
2022-08-02T15:56:24.512Z,41.42
2022-08-02T15:58:57.014Z,41.80
2022-08-02T16:01:35.220Z,42.25
2022-08-02T16:04:06.979Z,42.25
2022-08-02T16:06:34.725Z,42.13
2022-08-02T16:09:01.845Z,42.71
2022-08-02T16:11:28.671Z,42.41
2022-08-02T16:13:55.525Z,42.42
2022-08-02T16:16:33.516Z,42.62
2022-08-02T16:19:30.396Z,42.46
2022-08-02T16:21:48.818Z,42.78
2022-08-02T16:24:15.593Z,42.91
2022-08-02T16:26:42.669Z,42.89
2022-08-02T16:29:09.743Z,42.89
2022-08-02T16:31:41.550Z,43.42
2022-08-02T16:34:09.039Z,42.64
2022-08-02T16:36:36.168Z,43.06
2022-08-02T16:39:03.262Z,43.20
2022-08-02T16:41:50.673Z,42.90
2022-08-02T16:44:17.143Z,43.53
2022-08-02T16:46:44.998Z,43.60
2022-08-02T16:50:05.296Z,43.15
2022-08-02T16:51:59.193Z,42.61
2022-08-02T16:54:25.833Z,41.57
2022-08-02T16:56:53.430Z,40.46
2022-08-02T16:59:20.267Z,40.50
2022-08-02T17:02:11.055Z,38.84
2022-08-02T17:04:38.721Z,39.29
2022-08-02T17:10:02.423Z,40.82
2022-08-02T17:12:33.835Z,42.65
2022-08-02T17:15:02.761Z,43.32
2022-08-02T17:17:43.151Z,43.74
2022-08-02T17:20:10.280Z,43.81
2022-08-02T17:22:37.113Z,43.96
2022-08-02T17:25:04.941Z,44.34
2022-08-02T17:27:31.608Z,44.38
2022-08-02T17:29:59.756Z,44.89
2022-08-02T17:32:29.120Z,45.08
2022-08-02T17:34:59.761Z,45.68
2022-08-02T17:37:28.429Z,45.95
2022-08-02T17:39:55.666Z,45.57
2022-08-02T17:42:24.132Z,46.04
2022-08-02T17:44:53.410Z,46.21
2022-08-02T17:47:20.656Z,46.73
2022-08-02T17:49:48.992Z,47.09
2022-08-02T17:52:52.130Z,46.77
2022-08-02T17:55:10.715Z,46.79
2022-08-02T17:57:57.600Z,46.60
2022-08-02T18:00:26.556Z,47.24
2022-08-02T18:02:55.589Z,47.38
2022-08-02T18:05:35.423Z,47.83
2022-08-02T18:08:07.497Z,48.05
2022-08-02T18:10:34.497Z,48.44
2022-08-02T18:13:03.241Z,48.20
2022-08-02T18:15:32.508Z,48.22
2022-08-02T18:17:59.678Z,48.13
2022-08-02T18:20:26.325Z,48.71
2022-08-02T18:22:58.564Z,49.15
2022-08-02T18:25:37.771Z,48.77
2022-08-02T18:28:12.972Z,48.89
2022-08-02T18:30:39.758Z,48.90
2022-08-02T18:33:59.085Z,49.41
2022-08-02T18:35:55.516Z,49.88
2022-08-02T18:38:42.337Z,49.87
2022-08-02T18:41:12.987Z,50.01
2022-08-02T18:43:43.612Z,49.87
2022-08-02T18:46:15.220Z,49.91
2022-08-02T18:48:46.490Z,50.10
2022-08-02T18:51:14.548Z,50.42
2022-08-02T18:53:43.492Z,50.98
2022-08-02T18:56:19.294Z,51.77
2022-08-02T18:58:54.664Z,52.36
2022-08-02T19:01:34.381Z,52.65
2022-08-02T19:04:04.284Z,53.17
2022-08-02T19:06:31.754Z,53.37
2022-08-02T19:09:11.231Z,53.53
2022-08-02T19:11:41.147Z,54.69
2022-08-02T19:14:08.705Z,55.04
2022-08-02T19:19:22.681Z,55.71
2022-08-02T19:22:17.246Z,56.30
2022-08-02T19:24:37.504Z,55.94
2022-08-02T19:27:15.198Z,56.39
2022-08-02T19:29:48.719Z,55.85
2022-08-02T19:32:41.337Z,56.40
2022-08-02T19:35:19.644Z,57.05
2022-08-02T19:37:52.348Z,57.93
2022-08-02T19:40:24.062Z,58.15
2022-08-02T19:44:25.375Z,58.31
2022-08-02T19:45:49.035Z,58.72
2022-08-02T19:48:17.734Z,58.28
2022-08-02T19:50:50.489Z,58.21
2022-08-02T19:53:18.881Z,59.02
2022-08-02T19:56:00.833Z,59.41
2022-08-02T19:58:28.552Z,59.32
2022-08-02T20:00:55.240Z,60.01
2022-08-02T20:03:29.946Z,60.39
2022-08-02T20:06:10.165Z,60.71
2022-08-02T20:08:39.446Z,60.42
2022-08-02T20:11:06.221Z,61.31
2022-08-02T20:13:47.294Z,60.82
2022-08-02T20:16:27.246Z,60.28
2022-08-02T20:18:55.744Z,61.13
2022-08-02T20:21:36.423Z,60.86
2022-08-02T20:24:10.159Z,62.18
2022-08-02T20:26:39.690Z,62.00
2022-08-02T20:29:15.349Z,61.66
2022-08-02T20:32:02.563Z,61.64
2022-08-02T20:34:29.243Z,62.29
2022-08-02T20:36:56.671Z,62.99
2022-08-02T20:39:23.943Z,62.80
2022-08-02T20:42:22.694Z,63.56
2022-08-02T20:44:54.673Z,64.19
2022-08-02T20:47:27.619Z,64.38
2022-08-02T20:50:15.349Z,66.22
2022-08-02T20:52:43.871Z,67.56
2022-08-02T20:55:17.320Z,66.56
2022-08-02T20:58:03.098Z,65.33
2022-08-02T21:00:32.042Z,65.13
2022-08-02T21:03:00.361Z,64.90
2022-08-02T21:05:43.685Z,65.06
2022-08-02T21:08:15.425Z,65.65
2022-08-02T21:10:52.096Z,65.09
2022-08-02T21:13:26.744Z,65.64
2022-08-02T21:15:55.786Z,65.11
2022-08-02T21:18:35.185Z,65.49
2022-08-02T21:21:08.653Z,65.37
2022-08-02T21:23:36.579Z,65.31
2022-08-02T21:26:04.327Z,66.22
2022-08-02T21:28:43.287Z,65.72
2022-08-02T21:31:12.125Z,65.88
2022-08-02T21:33:47.123Z,65.83
2022-08-02T21:36:30.610Z,66.30
2022-08-02T21:39:05.198Z,66.15
2022-08-02T21:41:38.983Z,66.00
2022-08-02T21:44:13.792Z,67.30
2022-08-02T21:46:44.578Z,67.72
2022-08-02T21:49:12.638Z,67.90
2022-08-02T21:51:42.668Z,67.44
2022-08-02T21:54:18.666Z,67.59
2022-08-02T21:56:54.998Z,67.42
2022-08-02T21:59:26.218Z,67.45
2022-08-02T22:01:57.554Z,67.86
2022-08-02T22:04:25.849Z,67.94
2022-08-02T22:06:53.148Z,67.90
2022-08-02T22:09:43.655Z,68.48
2022-08-02T22:12:10.324Z,68.79
2022-08-02T22:14:39.932Z,69.03
2022-08-02T22:17:08.627Z,72.74
2022-08-02T22:19:36.478Z,74.33
2022-08-02T22:22:03.171Z,75.43
2022-08-02T22:24:30.562Z,75.31
2022-08-02T22:26:57.482Z,69.75
2022-08-02T22:29:24.488Z,69.67
2022-08-02T22:31:52.166Z,68.98
2022-08-02T22:34:37.140Z,69.79
2022-08-02T22:37:07.332Z,69.35
2022-08-02T22:39:34.493Z,68.69
2022-08-02T22:42:15.737Z,68.51
2022-08-02T22:44:44.189Z,68.57
2022-08-02T22:47:15.007Z,69.15
2022-08-02T22:49:51.598Z,69.19
2022-08-02T22:52:23.911Z,68.68
2022-08-02T22:57:56.754Z,68.89
2022-08-02T22:58:50.938Z,39.71
2022-08-02T22:58:59.506Z,56.14
2022-08-02T22:59:10.013Z,68.18
2022-08-02T23:00:25.058Z,68.59
2022-08-02T23:02:51.813Z,68.05
2022-08-02T23:05:18.630Z,68.52
2022-08-02T23:07:45.299Z,68.46
2022-08-02T23:10:11.990Z,67.53
2022-08-02T23:12:38.631Z,67.95
2022-08-02T23:15:05.746Z,68.43
2022-08-02T23:17:52.806Z,68.79
2022-08-02T23:20:20.089Z,69.11
2022-08-02T23:22:46.806Z,68.87
2022-08-02T23:25:14.643Z,68.41
2022-08-02T23:27:50.194Z,69.50
2022-08-02T23:30:17.752Z,70.51
2022-08-02T23:32:44.431Z,71.49
2022-08-02T23:35:17.043Z,72.33
2022-08-02T23:37:59.830Z,72.88
2022-08-02T23:40:40.183Z,73.74
2022-08-02T23:43:14.709Z,72.91
2022-08-02T23:45:46.291Z,71.80
2022-08-02T23:48:13.245Z,70.94
2022-08-02T23:50:39.891Z,69.80
2022-08-02T23:53:06.625Z,69.50
2022-08-02T23:55:33.270Z,68.84
2022-08-02T23:57:59.908Z,69.20
